Accueil
METAR-TAF:

METAR-TAF

Aéroports :

Base aérienne

Niederstetten, Allemagne

latitude: 49-24N, longitude: 009-58E, altitude: 468 m

Observation

Le bulletin a été fait il y a 36 minutes, à 22:20 UTC
Vent calme
Température 19°C
Humidité 78%
Pression 1019 hPa
Visibilité 10 km ou plus

METAR: ETHN 202220Z 00000KT 9999 19/15 Q1019 BLU+

Heure: 00:56 (22:56 UTC)

Prévision

Le bulletin a été fait il y a 8 heures et 8 minutes, à 14:48 UTC
Prévision valable du 20 à 14 UTC au 20 à 23 UTC
Vent 5 kt de nord
Visibilité: 1500 m
Nuages épars à une hauteur de 4000 ft

TAF: ETHN 201448Z 2014/2023 35005KT 9999 NSW SCT040 CANCEL 1500

Observations et prévisions météorologiques de plus de 4000 aéroports (messages METAR et TAF).

Les stations disponibles sont représentées par des disques jaunes et rouges sur la carte.

Passer la souris dessus pour voir le nom de la station.

Cliquer dessus pour voir les observations et prévisions météorologiques.

Pour changer de carte: cliquez sur les boutons verts avec une croix noire pour zoomer, sur le bouton vert avec un tiret pour effectuer un zoom arrière, ou sur les flèches vertes pour les cartes adjacentes.


METAR-TAF: